Time;durP1;ratioP1;P1;durP2;ratioP2;P2;SDS_P1;SDS_P2;PMS_P1;PMS_P2;Temp;Humidity;BMP_temperature;BMP_pressure;BME280_temperature;BME280_humidity;BME280_pressure;Samples;Min_cycle;Max_cycle;Signal;HPM_P1;HPM_P2
2020/12/19 00:00:48;;;;;;;2.85;2.10;;;8.10;79.40;;;;;;5102818;28;20031;-45
2020/12/19 00:03:14;;;;;;;2.15;1.80;;;8.10;79.50;;;;;;5095117;28;20024;-45
2020/12/19 00:05:41;;;;;;;2.10;1.90;;;8.10;79.40;;;;;;5102713;28;20053;-44
2020/12/19 00:08:07;;;;;;;2.38;2.10;;;8.10;80.10;;;;;;5102911;28;20770;-44
2020/12/19 00:10:33;;;;;;;2.33;2.13;;;8.10;79.40;;;;;;5102900;28;20040;-45
2020/12/19 00:12:59;;;;;;;2.30;1.90;;;8.10;79.40;;;;;;5102583;28;20043;-45
2020/12/19 00:15:25;;;;;;;1.70;1.60;;;8.10;79.40;;;;;;5102618;28;20031;-45
2020/12/19 00:17:52;;;;;;;2.35;2.00;;;8.10;80.10;;;;;;5102041;28;20020;-44
2020/12/19 00:20:18;;;;;;;3.22;2.33;;;8.10;79.50;;;;;;5102885;28;20068;-44
2020/12/19 00:22:44;;;;;;;4.93;2.17;;;8.10;79.50;;;;;;5102086;28;20045;-44
2020/12/19 00:25:11;;;;;;;2.08;1.65;;;8.00;79.40;;;;;;5102603;28;20035;-45
2020/12/19 00:27:37;;;;;;;2.38;2.00;;;8.00;79.40;;;;;;5102518;28;20097;-44
2020/12/19 00:30:05;;;;;;;4.55;2.20;;;8.00;79.50;;;;;;5102650;28;20047;-45
2020/12/19 00:32:31;;;;;;;2.78;2.00;;;8.00;79.40;;;;;;5102416;28;20117;-44
2020/12/19 00:34:57;;;;;;;4.73;2.13;;;8.00;79.40;;;;;;5101739;28;20100;-44
2020/12/19 00:37:24;;;;;;;2.55;1.75;;;8.00;79.40;;;;;;5102403;28;20265;-44
2020/12/19 00:39:51;;;;;;;2.75;1.95;;;8.00;79.40;;;;;;5083873;28;20032;-43
2020/12/19 00:42:17;;;;;;;5.63;2.75;;;8.00;79.40;;;;;;5102157;28;20028;-45
2020/12/19 00:44:43;;;;;;;3.92;2.25;;;8.00;79.40;;;;;;5102306;28;20043;-44
2020/12/19 00:47:10;;;;;;;2.67;2.20;;;8.00;79.40;;;;;;5102518;28;20042;-44
2020/12/19 00:49:36;;;;;;;3.17;1.95;;;7.90;79.40;;;;;;5102610;28;20036;-45
2020/12/19 00:52:02;;;;;;;1.98;1.77;;;7.90;79.40;;;;;;5102081;28;20032;-45
2020/12/19 00:54:28;;;;;;;2.03;1.52;;;7.90;79.30;;;;;;5102406;28;20032;-44
2020/12/19 00:56:55;;;;;;;2.20;1.98;;;7.90;79.30;;;;;;5102402;28;20081;-45
2020/12/19 00:59:21;;;;;;;3.80;2.20;;;7.90;80.10;;;;;;5102306;28;20104;-44
2020/12/19 01:01:47;;;;;;;3.08;2.10;;;7.90;79.30;;;;;;5081816;28;20080;-45
2020/12/19 01:04:13;;;;;;;3.30;2.25;;;7.90;79.30;;;;;;5102381;28;20080;-45
2020/12/19 01:06:40;;;;;;;2.60;2.40;;;7.90;79.40;;;;;;5102201;28;20051;-44
2020/12/19 01:09:06;;;;;;;2.38;1.95;;;7.90;79.40;;;;;;5084079;28;20051;-45
2020/12/19 01:11:33;;;;;;;2.05;1.80;;;7.90;79.40;;;;;;5102322;28;20036;-45
2020/12/19 01:13:59;;;;;;;2.30;1.92;;;7.80;79.40;;;;;;5102299;28;20024;-44
2020/12/19 01:16:27;;;;;;;2.97;2.10;;;7.80;79.30;;;;;;5102278;28;20111;-44
2020/12/19 01:18:55;;;;;;;2.28;2.03;;;7.80;79.40;;;;;;5094888;28;20111;-45
2020/12/19 01:21:25;;;;;;;3.28;2.03;;;7.80;79.30;;;;;;5143183;28;20060;-45
2020/12/19 01:23:52;;;;;;;3.00;2.28;;;7.80;79.40;;;;;;5142984;28;20027;-45
2020/12/19 01:26:18;;;;;;;3.63;2.13;;;7.80;79.30;;;;;;5124730;28;20023;-44
2020/12/19 01:28:44;;;;;;;2.40;2.10;;;7.80;79.30;;;;;;5145225;27;20015;-45
2020/12/19 01:31:12;;;;;;;2.33;1.87;;;7.80;79.30;;;;;;5146745;27;20046;-44
2020/12/19 01:33:38;;;;;;;3.58;2.30;;;7.80;79.30;;;;;;5138947;27;20047;-44
2020/12/19 01:36:09;;;;;;;4.22;2.33;;;7.70;79.30;;;;;;5124697;28;20073;-45
2020/12/19 01:38:35;;;;;;;2.40;2.10;;;7.70;79.20;;;;;;5125989;28;20115;-45
2020/12/19 01:41:01;;;;;;;2.40;1.92;;;7.70;79.30;;;;;;5126392;28;20649;-44
2020/12/19 01:43:47;;;;;;;3.38;2.25;;;7.70;79.30;;;;;;5125853;28;20027;-46
2020/12/19 01:46:27;;;;;;;2.53;2.03;;;7.70;79.30;;;;;;5108763;28;20031;-45
2020/12/19 01:48:55;;;;;;;2.58;2.10;;;7.70;79.30;;;;;;5108462;28;20639;-45
2020/12/19 01:51:21;;;;;;;2.85;2.17;;;7.70;79.30;;;;;;5091019;28;20050;-45
2020/12/19 01:53:48;;;;;;;2.90;2.35;;;7.70;79.30;;;;;;5107263;28;20091;-45
2020/12/19 01:56:14;;;;;;;2.75;2.10;;;7.70;79.30;;;;;;5125759;28;20030;-44
2020/12/19 01:58:41;;;;;;;3.22;2.50;;;7.70;79.20;;;;;;5090664;28;20024;-44
2020/12/19 02:01:07;;;;;;;2.20;1.90;;;7.60;79.20;;;;;;5125662;28;20091;-44
2020/12/19 02:03:33;;;;;;;2.70;2.05;;;7.60;79.30;;;;;;5083243;28;20028;-44
2020/12/19 02:05:59;;;;;;;2.42;2.20;;;7.60;79.30;;;;;;5108037;28;20114;-44
2020/12/19 02:08:25;;;;;;;2.72;2.15;;;7.60;79.20;;;;;;5125734;28;20038;-45
2020/12/19 02:10:51;;;;;;;2.58;2.38;;;7.60;79.30;;;;;;5125595;28;20043;-44
2020/12/19 02:13:17;;;;;;;2.60;2.15;;;7.60;79.30;;;;;;5125372;28;20126;-44
2020/12/19 02:15:44;;;;;;;2.65;2.10;;;7.60;79.30;;;;;;5125386;28;20053;-44
2020/12/19 02:18:11;;;;;;;3.42;2.28;;;7.60;79.20;;;;;;5105774;28;20106;-44
2020/12/19 02:20:37;;;;;;;3.42;1.88;;;7.60;79.30;;;;;;5086911;28;20088;-44
2020/12/19 02:23:05;;;;;;;3.80;2.20;;;7.50;79.20;;;;;;5104654;28;20048;-44
2020/12/19 02:25:32;;;;;;;2.97;2.50;;;7.50;79.30;;;;;;5104910;28;20028;-44
2020/12/19 02:28:01;;;;;;;2.33;2.13;;;7.50;79.30;;;;;;5104740;28;20499;-44
2020/12/19 02:30:27;;;;;;;4.22;2.30;;;7.50;79.30;;;;;;5086340;28;20043;-44
2020/12/19 02:32:53;;;;;;;2.38;2.05;;;7.50;79.30;;;;;;5104412;28;20102;-45
2020/12/19 02:35:19;;;;;;;4.15;2.78;;;7.50;79.30;;;;;;5104709;28;20050;-44
2020/12/19 02:37:46;;;;;;;2.90;2.40;;;7.50;79.40;;;;;;5104432;28;20020;-44
2020/12/19 02:40:12;;;;;;;2.35;2.03;;;7.40;79.30;;;;;;5085841;28;20036;-44
2020/12/19 02:42:38;;;;;;;3.03;2.30;;;7.40;79.30;;;;;;5104318;28;20028;-45
2020/12/19 02:45:04;;;;;;;2.65;2.05;;;7.40;79.30;;;;;;5104235;28;20428;-44
2020/12/19 02:47:30;;;;;;;2.58;2.13;;;7.40;79.30;;;;;;5104656;28;20032;-44
2020/12/19 02:49:56;;;;;;;2.83;2.20;;;7.40;79.30;;;;;;5104364;28;20028;-44
2020/12/19 02:52:23;;;;;;;2.88;2.20;;;7.40;79.40;;;;;;5104259;28;20039;-44
2020/12/19 02:54:49;;;;;;;3.10;2.50;;;7.40;79.30;;;;;;5104085;28;20050;-44
2020/12/19 02:57:15;;;;;;;3.10;2.63;;;7.40;79.30;;;;;;5104343;28;20039;-44
2020/12/19 02:59:41;;;;;;;3.92;2.50;;;7.30;79.30;;;;;;5104347;28;20027;-44
2020/12/19 03:02:07;;;;;;;2.72;2.30;;;7.40;79.30;;;;;;5103833;28;20031;-45
2020/12/19 03:04:33;;;;;;;2.60;2.20;;;7.30;79.40;;;;;;5101843;28;20445;-45
2020/12/19 03:07:00;;;;;;;3.03;2.60;;;7.30;79.30;;;;;;5092570;28;20025;-44
2020/12/19 03:09:26;;;;;;;3.00;2.60;;;7.30;79.40;;;;;;5083711;28;20173;-46
2020/12/19 03:11:52;;;;;;;3.83;2.63;;;7.30;79.40;;;;;;5083843;28;20036;-45
2020/12/19 03:14:19;;;;;;;3.40;2.42;;;7.30;79.40;;;;;;5083599;28;20044;-44
2020/12/19 03:16:45;;;;;;;3.38;2.42;;;7.30;79.40;;;;;;5083455;28;20514;-44
2020/12/19 03:19:11;;;;;;;2.75;2.30;;;7.30;79.40;;;;;;5070038;28;20104;-44
2020/12/19 03:21:38;;;;;;;3.80;2.72;;;7.20;79.40;;;;;;5085712;28;20028;-44
2020/12/19 03:24:05;;;;;;;3.55;2.55;;;7.30;79.40;;;;;;5103505;28;20024;-44
2020/12/19 03:26:31;;;;;;;3.83;2.70;;;7.20;79.30;;;;;;5103836;28;20031;-44
2020/12/19 03:28:57;;;;;;;3.92;2.83;;;7.20;79.40;;;;;;5085703;28;20028;-44
2020/12/19 03:31:24;;;;;;;3.20;2.65;;;7.20;79.50;;;;;;5103563;28;20036;-44
2020/12/19 03:33:50;;;;;;;4.50;2.97;;;7.20;79.40;;;;;;5103475;28;20088;-44
2020/12/19 03:36:17;;;;;;;4.18;2.95;;;7.20;79.40;;;;;;5103641;28;20684;-44
2020/12/19 03:38:43;;;;;;;4.72;2.80;;;7.20;79.40;;;;;;5085165;28;20134;-44
2020/12/19 03:41:09;;;;;;;3.63;2.65;;;7.20;79.40;;;;;;5103572;28;20103;-44
2020/12/19 03:43:36;;;;;;;3.70;2.58;;;7.10;79.40;;;;;;5103381;28;20107;-44
2020/12/19 03:46:02;;;;;;;4.68;2.90;;;7.10;79.40;;;;;;5102851;28;20020;-45
2020/12/19 03:48:28;;;;;;;3.40;2.38;;;7.10;79.40;;;;;;5085212;28;20032;-44
2020/12/19 03:50:55;;;;;;;4.88;2.97;;;7.10;79.40;;;;;;5103013;28;20036;-45
2020/12/19 03:53:21;;;;;;;3.92;3.08;;;7.10;79.40;;;;;;5102477;28;20056;-44
2020/12/19 03:55:47;;;;;;;4.03;2.88;;;7.10;79.40;;;;;;5102959;28;20028;-44
2020/12/19 03:58:13;;;;;;;3.88;2.90;;;7.10;79.40;;;;;;5102882;28;20165;-44
2020/12/19 04:00:39;;;;;;;4.22;3.20;;;7.10;79.40;;;;;;5103144;28;20024;-45
2020/12/19 04:03:05;;;;;;;4.07;2.92;;;7.00;79.40;;;;;;5100643;28;20035;-44
2020/12/19 04:05:32;;;;;;;4.43;3.08;;;7.10;79.40;;;;;;5102776;28;20032;-45
2020/12/19 04:07:58;;;;;;;4.47;3.17;;;7.10;79.50;;;;;;5102880;28;20046;-44
2020/12/19 04:10:24;;;;;;;4.22;3.22;;;7.00;79.40;;;;;;5103058;28;20103;-44
2020/12/19 04:12:50;;;;;;;4.75;2.95;;;7.00;79.40;;;;;;5102919;28;20020;-44
2020/12/19 04:15:22;;;;;;;5.25;3.03;;;7.00;79.40;;;;;;5102577;28;20131;-44
2020/12/19 04:17:52;;;;;;;4.18;3.20;;;7.00;79.40;;;;;;5102851;28;20098;-44
2020/12/19 04:20:18;;;;;;;3.55;2.63;;;7.00;79.40;;;;;;5102820;28;20052;-44
2020/12/19 04:22:44;;;;;;;4.20;3.22;;;7.00;79.50;;;;;;5102696;28;20016;-44
2020/12/19 04:25:11;;;;;;;5.05;3.17;;;7.00;79.40;;;;;;5102725;28;20028;-44
2020/12/19 04:27:38;;;;;;;4.67;3.33;;;6.90;79.40;;;;;;5102686;28;20028;-44
2020/12/19 04:30:05;;;;;;;4.32;2.92;;;7.00;79.50;;;;;;5102527;28;20035;-44
2020/12/19 04:32:31;;;;;;;4.50;3.35;;;7.00;79.50;;;;;;5102835;28;20110;-44
2020/12/19 04:34:57;;;;;;;4.65;3.22;;;6.90;79.50;;;;;;5102495;28;20039;-44
2020/12/19 04:37:24;;;;;;;4.22;2.95;;;6.90;79.50;;;;;;5102387;28;20016;-46
2020/12/19 04:39:50;;;;;;;5.03;3.20;;;6.90;79.50;;;;;;5102861;28;20028;-44
2020/12/19 04:42:16;;;;;;;4.83;3.63;;;6.90;79.50;;;;;;5102344;28;20305;-44
2020/12/19 04:44:43;;;;;;;3.60;2.83;;;6.90;79.50;;;;;;5102476;28;20024;-44
2020/12/19 04:47:09;;;;;;;4.18;3.03;;;6.90;79.50;;;;;;5102177;28;20054;-44
2020/12/19 04:49:36;;;;;;;4.32;3.22;;;6.90;79.50;;;;;;5102537;28;20024;-45
2020/12/19 04:52:02;;;;;;;5.30;3.35;;;6.90;79.50;;;;;;5067758;28;20042;-45
2020/12/19 04:54:29;;;;;;;4.77;3.40;;;6.80;79.40;;;;;;5102446;28;20091;-44
2020/12/19 04:56:55;;;;;;;6.07;3.45;;;6.80;79.50;;;;;;5101926;28;20494;-44
2020/12/19 04:59:22;;;;;;;4.23;3.07;;;6.80;79.40;;;;;;5102537;28;20052;-44
2020/12/19 05:01:48;;;;;;;4.95;3.30;;;6.80;79.50;;;;;;5102221;28;20284;-44
2020/12/19 05:04:14;;;;;;;4.60;3.42;;;6.80;79.40;;;;;;5105380;28;20019;-44
2020/12/19 05:06:40;;;;;;;3.90;3.00;;;6.80;79.50;;;;;;5097617;28;20074;-45
2020/12/19 05:09:07;;;;;;;4.00;2.97;;;6.70;79.40;;;;;;5099787;28;20034;-45
2020/12/19 05:11:33;;;;;;;4.75;3.20;;;6.70;79.50;;;;;;5088067;28;20046;-45
2020/12/19 05:14:01;;;;;;;5.35;3.85;;;6.80;79.60;;;;;;5106199;28;20077;-44
2020/12/19 05:16:27;;;;;;;4.03;3.08;;;6.80;79.60;;;;;;5071447;28;20032;-44
2020/12/19 05:18:53;;;;;;;4.72;3.50;;;6.70;79.50;;;;;;5115538;27;20050;-44
2020/12/19 05:21:20;;;;;;;4.70;3.25;;;6.70;79.60;;;;;;5147238;27;20019;-45
2020/12/19 05:23:46;;;;;;;3.92;3.17;;;6.70;79.50;;;;;;5128723;27;20035;-44
2020/12/19 05:26:12;;;;;;;4.20;3.53;;;6.70;79.60;;;;;;5146823;27;20023;-44
2020/12/19 05:28:42;;;;;;;4.45;3.55;;;6.70;79.60;;;;;;5147146;27;20034;-44
2020/12/19 05:31:09;;;;;;;5.22;3.47;;;6.70;79.60;;;;;;5128373;27;20063;-44
2020/12/19 05:33:37;;;;;;;6.50;3.67;;;6.70;79.60;;;;;;5139111;27;20043;-44
2020/12/19 05:36:04;;;;;;;5.65;3.70;;;6.70;79.60;;;;;;5143081;27;20032;-44
2020/12/19 05:38:30;;;;;;;6.10;3.80;;;6.60;79.50;;;;;;5126044;28;20047;-44
2020/12/19 05:40:58;;;;;;;4.67;3.43;;;6.70;79.60;;;;;;5126352;28;20028;-44
2020/12/19 05:43:24;;;;;;;5.43;3.60;;;6.60;79.60;;;;;;5108085;28;20268;-44
2020/12/19 05:45:51;;;;;;;4.88;3.65;;;6.60;79.60;;;;;;5125881;28;20102;-43
2020/12/19 05:48:17;;;;;;;4.18;3.42;;;6.60;79.50;;;;;;5126170;28;20036;-44
2020/12/19 05:50:43;;;;;;;4.75;3.35;;;6.60;79.60;;;;;;5143713;27;20046;-44
2020/12/19 05:53:10;;;;;;;4.90;3.70;;;6.60;79.60;;;;;;5135110;27;20030;-44
2020/12/19 05:55:36;;;;;;;5.40;3.90;;;6.60;79.50;;;;;;5125865;28;20032;-44
2020/12/19 05:58:05;;;;;;;5.45;3.72;;;6.60;79.60;;;;;;5125749;28;20252;-44
2020/12/19 06:00:32;;;;;;;5.03;3.58;;;6.60;79.60;;;;;;5125944;28;20034;-45
2020/12/19 06:03:01;;;;;;;5.65;3.95;;;6.60;79.60;;;;;;5133797;27;20034;-45
2020/12/19 06:05:27;;;;;;;4.55;3.60;;;6.60;79.60;;;;;;5108102;28;20031;-44
2020/12/19 06:07:53;;;;;;;5.88;3.72;;;6.50;79.60;;;;;;5088088;28;20031;-45
2020/12/19 06:10:19;;;;;;;5.03;3.65;;;6.50;79.60;;;;;;5086900;28;20082;-45
2020/12/19 06:12:56;;;;;;;5.03;3.70;;;6.50;79.60;;;;;;5105396;28;20099;-45
2020/12/19 06:15:46;;;;;;;5.53;3.95;;;6.50;79.60;;;;;;5085947;28;20043;-45
2020/12/19 06:18:45;;;;;;;4.32;3.33;;;6.50;79.70;;;;;;5085147;28;20039;-45
2020/12/19 06:21:11;;;;;;;;;;;6.50;79.60;;;;;;5067411;28;20040;-44
2020/12/19 06:23:38;;;;;;;4.90;3.50;;;6.50;79.60;;;;;;5084643;28;19908;-44
2020/12/19 06:26:11;;;;;;;5.77;4.00;;;6.50;79.60;;;;;;5084799;28;20766;-44
2020/12/19 06:28:40;;;;;;;6.00;3.55;;;6.40;79.60;;;;;;5066823;28;20036;-45
2020/12/19 06:31:20;;;;;;;5.38;3.83;;;6.40;79.60;;;;;;5084545;28;20028;-44
2020/12/19 06:33:50;;;;;;;5.25;3.83;;;6.40;79.60;;;;;;5101302;28;20047;-44
2020/12/19 06:36:24;;;;;;;6.32;3.78;;;6.40;79.60;;;;;;5104507;28;20120;-44
2020/12/19 06:38:55;;;;;;;4.90;3.67;;;6.40;79.70;;;;;;5104410;28;20043;-45
2020/12/19 06:41:43;;;;;;;5.43;3.97;;;6.40;79.70;;;;;;5104568;28;20028;-44
2020/12/19 06:44:29;;;;;;;5.40;3.75;;;6.40;79.70;;;;;;5104676;28;20035;-44
2020/12/19 06:46:56;;;;;;;5.70;3.78;;;6.40;79.70;;;;;;5086190;28;20020;-45
2020/12/19 06:49:22;;;;;;;5.25;4.03;;;6.40;79.70;;;;;;5104485;28;20104;-44
2020/12/19 06:51:58;;;;;;;6.07;4.00;;;6.40;79.70;;;;;;5104638;28;20079;-44
2020/12/19 06:54:51;;;;;;;5.85;4.10;;;6.40;79.70;;;;;;5104194;28;20481;-44
2020/12/19 06:57:33;;;;;;;5.25;3.95;;;6.30;79.70;;;;;;5099925;28;20050;-45
2020/12/19 07:00:25;;;;;;;6.13;4.00;;;6.30;79.70;;;;;;5104467;28;20028;-44
2020/12/19 07:02:55;;;;;;;5.78;4.13;;;6.30;79.70;;;;;;5103863;28;20024;-44
2020/12/19 07:05:28;;;;;;;5.22;3.95;;;6.30;79.80;;;;;;5120061;28;20024;-45
2020/12/19 07:08:23;;;;;;;6.63;4.43;;;6.30;79.80;;;;;;5084631;28;20041;-44
2020/12/19 07:10:50;;;;;;;5.97;3.80;;;6.30;79.80;;;;;;5083758;28;20040;-44
2020/12/19 07:13:16;;;;;;;6.80;4.70;;;6.30;79.90;;;;;;5083944;28;20033;-45
2020/12/19 07:15:47;;;;;;;7.28;4.53;;;6.30;79.80;;;;;;5083662;28;20103;-44
2020/12/19 07:18:37;;;;;;;5.32;4.07;;;6.20;79.70;;;;;;5083471;28;20024;-44
2020/12/19 07:21:04;;;;;;;5.97;4.30;;;6.20;79.80;;;;;;5103746;28;20044;-45
2020/12/19 07:23:31;;;;;;;7.00;4.85;;;6.20;79.80;;;;;;5085806;28;20085;-45
2020/12/19 07:25:58;;;;;;;7.80;4.22;;;6.20;79.80;;;;;;5103911;28;20090;-44
2020/12/19 07:28:24;;;;;;;5.80;4.63;;;6.20;79.80;;;;;;5103688;28;20032;-45
2020/12/19 07:30:50;;;;;;;6.80;4.57;;;6.20;79.80;;;;;;5103367;28;20056;-45
2020/12/19 07:33:17;;;;;;;6.40;4.60;;;6.20;79.80;;;;;;5103797;28;20396;-43
2020/12/19 07:35:44;;;;;;;5.65;4.28;;;6.20;79.90;;;;;;5103097;28;20039;-44
2020/12/19 07:38:10;;;;;;;6.22;4.30;;;6.20;79.80;;;;;;5082922;28;20072;-44
2020/12/19 07:40:36;;;;;;;7.45;4.63;;;6.20;79.90;;;;;;5083330;28;20033;-44
2020/12/19 07:43:09;;;;;;;6.40;4.70;;;6.10;79.80;;;;;;5103328;28;20047;-44
2020/12/19 07:45:36;;;;;;;6.47;4.43;;;6.10;79.80;;;;;;5086046;28;20032;-44
2020/12/19 07:48:02;;;;;;;6.45;4.65;;;6.10;79.90;;;;;;5103228;28;20016;-44
2020/12/19 07:50:32;;;;;;;6.88;4.55;;;6.10;79.90;;;;;;5103390;28;20039;-44
2020/12/19 07:53:08;;;;;;;6.90;4.15;;;6.10;79.90;;;;;;5103415;28;20020;-44
2020/12/19 07:55:35;;;;;;;6.32;4.20;;;6.10;79.90;;;;;;5103487;28;20036;-44
2020/12/19 07:58:02;;;;;;;5.95;4.50;;;6.10;79.90;;;;;;5103306;28;20035;-44
2020/12/19 08:00:29;;;;;;;7.35;4.57;;;6.10;79.90;;;;;;5085411;28;20066;-44
2020/12/19 08:02:55;;;;;;;7.10;5.03;;;6.10;79.90;;;;;;5103079;28;20054;-44
2020/12/19 08:05:21;;;;;;;7.07;4.60;;;6.10;80.60;;;;;;5103202;28;20036;-44
2020/12/19 08:07:52;;;;;;;6.80;4.80;;;6.10;80.00;;;;;;5084847;28;20028;-44
2020/12/19 08:10:18;;;;;;;6.65;4.65;;;6.10;79.90;;;;;;5098376;28;20062;-44
2020/12/19 08:12:44;;;;;;;6.63;4.82;;;6.00;79.90;;;;;;5083111;28;20032;-44
2020/12/19 08:15:15;;;;;;;5.85;4.65;;;6.00;79.90;;;;;;5082917;28;20477;-44
2020/12/19 08:17:49;;;;;;;6.28;4.57;;;6.00;79.90;;;;;;5082402;28;20123;-44
2020/12/19 08:20:20;;;;;;;7.72;4.43;;;6.00;80.00;;;;;;5096491;28;20143;-43
2020/12/19 08:22:47;;;;;;;7.15;4.78;;;6.00;80.00;;;;;;5105584;28;20054;-45
2020/12/19 08:25:13;;;;;;;6.15;4.82;;;6.00;80.00;;;;;;5123560;28;20023;-44
2020/12/19 08:27:44;;;;;;;6.95;4.80;;;6.00;80.00;;;;;;5109984;28;20034;-44
2020/12/19 08:30:13;;;;;;;7.60;4.93;;;6.00;80.00;;;;;;5125907;27;20030;-44
2020/12/19 08:33:08;;;;;;;8.27;4.97;;;6.00;80.00;;;;;;5136144;27;20034;-44
2020/12/19 08:35:42;;;;;;;7.13;5.18;;;5.90;79.90;;;;;;5095495;28;20028;-45
2020/12/19 08:38:11;;;;;;;8.65;5.50;;;5.90;79.90;;;;;;5105442;28;20118;-44
2020/12/19 08:40:41;;;;;;;7.07;4.28;;;5.90;79.90;;;;;;5119812;27;20056;-44
2020/12/19 08:43:09;;;;;;;7.20;4.97;;;5.90;79.90;;;;;;5110272;28;20016;-43
2020/12/19 08:45:42;;;;;;;7.65;5.30;;;5.90;80.00;;;;;;5109476;28;20035;-44
2020/12/19 08:48:18;;;;;;;7.68;4.70;;;5.90;80.00;;;;;;5109488;28;20036;-44
2020/12/19 08:50:44;;;;;;;6.18;4.72;;;5.90;80.70;;;;;;5144735;27;20118;-44
2020/12/19 08:53:22;;;;;;;9.07;5.53;;;5.90;79.90;;;;;;5150430;27;20019;-44
2020/12/19 08:55:49;;;;;;;7.45;5.25;;;5.90;80.00;;;;;;5150528;27;20506;-44
2020/12/19 08:58:28;;;;;;;6.97;5.00;;;5.90;80.00;;;;;;5132339;27;20414;-44
2020/12/19 09:00:59;;;;;;;7.50;4.80;;;5.90;80.00;;;;;;5131978;27;20139;-45
2020/12/19 09:03:32;;;;;;;7.57;5.35;;;5.80;80.00;;;;;;5136217;27;20020;-44
2020/12/19 09:06:03;;;;;;;6.20;4.72;;;5.80;80.00;;;;;;5126843;28;20036;-44
2020/12/19 09:08:45;;;;;;;9.45;5.75;;;5.80;80.00;;;;;;5109328;28;20103;-44
2020/12/19 09:11:31;;;;;;;7.72;4.75;;;5.80;80.00;;;;;;5115996;27;20067;-45
2020/12/19 09:14:12;;;;;;;8.07;5.68;;;5.80;80.00;;;;;;5150307;27;20034;-44
2020/12/19 09:16:53;;;;;;;6.70;4.78;;;5.80;80.00;;;;;;5150373;27;20023;-44
2020/12/19 09:19:19;;;;;;;6.65;4.88;;;5.80;80.00;;;;;;5144487;27;20047;-44
2020/12/19 09:21:58;;;;;;;7.95;5.35;;;5.80;80.00;;;;;;5129415;28;20065;-45
2020/12/19 09:24:25;;;;;;;7.70;5.20;;;5.80;80.00;;;;;;5129507;28;20027;-44
2020/12/19 09:26:53;;;;;;;8.10;5.18;;;5.80;80.10;;;;;;5129663;28;20055;-44
2020/12/19 09:29:19;;;;;;;7.70;4.78;;;5.80;80.10;;;;;;5129583;28;20076;-44
2020/12/19 09:31:45;;;;;;;7.57;5.35;;;5.70;80.00;;;;;;5129254;28;20041;-44
2020/12/19 09:34:11;;;;;;;7.78;5.38;;;5.70;80.00;;;;;;5081891;28;20024;-44
2020/12/19 09:36:38;;;;;;;7.35;5.45;;;5.70;80.00;;;;;;5117446;28;20023;-44
2020/12/19 09:39:04;;;;;;;6.65;5.05;;;5.70;80.00;;;;;;5129514;28;20020;-43
2020/12/19 09:41:31;;;;;;;8.25;5.30;;;5.70;80.10;;;;;;5129809;27;20671;-44
2020/12/19 09:43:57;;;;;;;7.10;5.00;;;5.70;80.10;;;;;;5129243;28;20055;-45
2020/12/19 09:46:23;;;;;;;7.05;4.85;;;5.70;80.10;;;;;;5129311;28;20035;-44
2020/12/19 09:48:49;;;;;;;7.63;5.13;;;5.70;80.10;;;;;;5112259;27;20047;-45
2020/12/19 09:51:15;;;;;;;7.90;5.50;;;5.70;80.10;;;;;;5146720;27;20042;-44
2020/12/19 09:53:42;;;;;;;8.75;6.28;;;5.70;80.10;;;;;;5146411;27;20019;-44
2020/12/19 09:56:08;;;;;;;7.83;5.57;;;5.60;80.10;;;;;;5146627;27;20031;-44
2020/12/19 09:58:34;;;;;;;9.15;5.05;;;5.60;80.10;;;;;;5146608;27;20030;-44
2020/12/19 10:01:00;;;;;;;9.20;5.70;;;5.60;80.10;;;;;;5146806;27;20057;-44
2020/12/19 10:03:26;;;;;;;8.13;5.30;;;5.60;80.00;;;;;;5132046;27;20023;-44
2020/12/19 10:05:53;;;;;;;8.30;5.45;;;5.60;80.10;;;;;;5123856;28;20020;-44
2020/12/19 10:08:19;;;;;;;8.50;5.63;;;5.60;80.10;;;;;;5105234;28;20050;-44
2020/12/19 10:10:45;;;;;;;8.32;5.50;;;5.60;80.20;;;;;;5105379;28;20043;-44
2020/12/19 10:13:12;;;;;;;5.57;4.18;;;5.60;80.20;;;;;;5105329;28;20177;-43
2020/12/19 10:15:39;;;;;;;4.82;3.95;;;5.60;80.20;;;;;;5105588;28;20484;-44
2020/12/19 10:18:06;;;;;;;8.23;5.43;;;5.60;80.20;;;;;;5104693;28;20027;-44
2020/12/19 10:20:35;;;;;;;7.10;5.05;;;5.60;80.20;;;;;;5100934;28;20046;-44
2020/12/19 10:23:02;;;;;;;7.95;5.30;;;5.50;80.10;;;;;;5104869;28;20028;-43
2020/12/19 10:25:28;;;;;;;8.75;5.75;;;5.50;80.20;;;;;;5105071;28;20035;-45
2020/12/19 10:27:54;;;;;;;6.55;4.80;;;5.50;80.20;;;;;;5104994;28;20016;-45
2020/12/19 10:30:20;;;;;;;9.77;5.78;;;5.50;80.10;;;;;;5104780;28;20024;-46
2020/12/19 10:32:46;;;;;;;6.97;5.28;;;5.50;80.20;;;;;;5104597;28;20028;-47
2020/12/19 10:35:12;;;;;;;9.02;5.75;;;5.50;80.20;;;;;;5104803;28;20024;-45
2020/12/19 10:37:39;;;;;;;8.05;5.50;;;5.50;80.20;;;;;;5105096;28;20031;-44
2020/12/19 10:40:05;;;;;;;9.15;5.40;;;5.50;80.20;;;;;;5104841;28;20076;-43
2020/12/19 10:42:31;;;;;;;8.33;5.33;;;5.40;80.20;;;;;;5104748;28;20047;-46
2020/12/19 10:44:57;;;;;;;8.82;5.53;;;5.50;80.30;;;;;;5104369;28;20821;-45
2020/12/19 10:47:24;;;;;;;7.57;5.57;;;5.50;80.30;;;;;;5104611;28;20028;-46
2020/12/19 10:49:51;;;;;;;7.63;5.43;;;5.40;80.20;;;;;;5104618;28;20024;-46
2020/12/19 10:52:18;;;;;;;8.10;5.88;;;5.40;80.30;;;;;;5104815;28;20034;-45
2020/12/19 10:54:44;;;;;;;7.73;5.53;;;5.40;80.30;;;;;;5104174;28;20455;-46
2020/12/19 10:57:10;;;;;;;8.55;5.35;;;5.40;80.30;;;;;;5104534;28;20264;-45
2020/12/19 10:59:36;;;;;;;8.50;5.55;;;5.40;80.30;;;;;;5104653;28;20505;-44
2020/12/19 11:02:02;;;;;;;8.00;5.10;;;5.40;80.30;;;;;;5103794;28;20028;-43
2020/12/19 11:04:28;;;;;;;6.75;5.63;;;5.40;80.30;;;;;;5104169;28;20043;-45
2020/12/19 11:06:55;;;;;;;9.40;5.68;;;5.40;80.30;;;;;;5093522;28;20032;-45
2020/12/19 11:09:21;;;;;;;7.78;5.70;;;5.30;80.30;;;;;;5083643;28;20032;-45
2020/12/19 11:11:51;;;;;;;7.72;5.70;;;5.30;80.20;;;;;;5065977;28;20020;-46
2020/12/19 11:14:17;;;;;;;7.93;5.63;;;5.40;80.30;;;;;;5083851;28;20040;-44
2020/12/19 11:16:44;;;;;;;8.05;5.93;;;5.30;80.30;;;;;;5083968;28;20127;-44
2020/12/19 11:19:10;;;;;;;8.93;5.97;;;5.30;80.30;;;;;;5087763;28;20047;-45
2020/12/19 11:21:43;;;;;;;9.07;5.72;;;5.30;80.30;;;;;;5104022;28;20100;-46
2020/12/19 11:24:11;;;;;;;7.72;5.53;;;5.30;80.30;;;;;;5103530;28;20032;-46
2020/12/19 11:26:37;;;;;;;8.52;5.82;;;5.30;80.30;;;;;;5103957;28;20038;-45
2020/12/19 11:29:03;;;;;;;10.23;6.87;;;5.30;80.30;;;;;;5103951;28;20054;-48
2020/12/19 11:31:29;;;;;;;11.40;5.65;;;5.30;80.30;;;;;;5103866;28;20036;-45
2020/12/19 11:33:56;;;;;;;7.70;5.63;;;5.30;81.00;;;;;;5103499;28;20050;-46
2020/12/19 11:36:22;;;;;;;8.20;5.45;;;5.30;80.30;;;;;;5079357;28;20035;-45
2020/12/19 11:38:49;;;;;;;8.27;5.78;;;5.20;80.20;;;;;;5083321;28;20024;-46
2020/12/19 11:41:21;;;;;;;8.97;6.03;;;5.20;80.30;;;;;;5083405;28;20032;-45
2020/12/19 11:43:47;;;;;;;7.47;4.85;;;5.20;80.30;;;;;;5083083;28;20031;-46
2020/12/19 11:46:13;;;;;;;10.80;6.15;;;5.20;80.30;;;;;;5089983;28;20020;-46
2020/12/19 11:48:40;;;;;;;8.10;5.57;;;5.20;80.30;;;;;;5103514;28;20083;-48
2020/12/19 11:51:06;;;;;;;9.27;6.13;;;5.20;80.30;;;;;;5103679;28;20040;-45
2020/12/19 11:53:32;;;;;;;8.13;5.28;;;5.20;80.30;;;;;;5103322;28;20035;-45
2020/12/19 11:55:58;;;;;;;8.18;5.68;;;5.20;80.40;;;;;;5103297;28;20032;-46
2020/12/19 11:58:24;;;;;;;7.40;5.50;;;5.20;80.40;;;;;;5103422;28;20039;-46
2020/12/19 12:00:50;;;;;;;7.78;5.57;;;5.20;80.40;;;;;;5103495;28;20020;-46
2020/12/19 12:03:16;;;;;;;10.32;5.82;;;5.20;80.40;;;;;;5103307;28;20057;-45
2020/12/19 12:05:43;;;;;;;8.63;5.95;;;5.10;80.30;;;;;;5102204;28;20039;-46
2020/12/19 12:08:09;;;;;;;10.82;6.25;;;5.10;80.30;;;;;;5085017;28;20042;-46
2020/12/19 12:10:35;;;;;;;8.57;5.97;;;5.10;80.40;;;;;;5102994;28;20036;-46
2020/12/19 12:13:01;;;;;;;8.60;5.88;;;5.10;80.30;;;;;;5102413;28;20061;-45
2020/12/19 12:15:27;;;;;;;10.02;5.78;;;5.10;80.40;;;;;;5102961;28;20024;-44
2020/12/19 12:17:53;;;;;;;9.60;5.93;;;5.10;80.40;;;;;;5084891;28;20028;-46
2020/12/19 12:20:20;;;;;;;8.63;5.57;;;5.10;80.40;;;;;;5122174;28;20073;-46
2020/12/19 12:22:46;;;;;;;8.63;5.53;;;5.10;80.50;;;;;;5123578;28;20024;-45
2020/12/19 12:25:13;;;;;;;7.03;5.20;;;5.10;80.40;;;;;;5122982;28;20024;-46
2020/12/19 12:27:39;;;;;;;9.55;5.80;;;5.10;80.40;;;;;;5123466;28;20027;-45
2020/12/19 12:30:05;;;;;;;7.22;5.35;;;5.00;80.40;;;;;;5123288;28;20058;-47
2020/12/19 12:32:31;;;;;;;9.45;5.82;;;5.00;80.40;;;;;;5104866;28;20112;-46
2020/12/19 12:34:57;;;;;;;8.63;6.03;;;5.00;80.40;;;;;;5104081;28;20024;-45
2020/12/19 12:37:23;;;;;;;7.70;5.50;;;5.00;80.40;;;;;;5117256;28;20028;-45
2020/12/19 12:39:50;;;;;;;8.13;5.75;;;5.00;80.40;;;;;;5123149;28;20109;-46
2020/12/19 12:42:20;;;;;;;8.52;5.35;;;5.00;80.40;;;;;;5123272;28;20059;-45
2020/12/19 12:44:47;;;;;;;7.50;5.50;;;5.00;80.50;;;;;;5104876;28;20404;-45
2020/12/19 12:47:13;;;;;;;7.15;4.30;;;5.00;80.50;;;;;;5123081;28;20055;-45
2020/12/19 12:49:39;;;;;;;9.32;5.78;;;5.00;80.50;;;;;;5123155;28;20059;-45
2020/12/19 12:52:05;;;;;;;7.93;5.93;;;5.00;80.50;;;;;;5123098;28;20028;-45
2020/12/19 12:54:32;;;;;;;7.72;5.90;;;5.00;80.40;;;;;;5122633;28;20048;-46
2020/12/19 12:56:58;;;;;;;9.52;5.97;;;4.90;80.50;;;;;;5123023;28;20028;-46
2020/12/19 12:59:24;;;;;;;7.57;5.25;;;4.90;80.40;;;;;;5123244;28;20042;-46
2020/12/19 13:01:50;;;;;;;9.18;6.03;;;5.00;80.50;;;;;;5122971;28;20024;-45